Time;durP1;ratioP1;P1;durP2;ratioP2;P2;SDS_P1;SDS_P2;PMS_P1;PMS_P2;Temp;Humidity;BMP_temperature;BMP_pressure;BME280_temperature;BME280_humidity;BME280_pressure;Samples;Min_cycle;Max_cycle;Signal;HPM_P1;HPM_P2
2022/03/20 00:01:17;;;;;;;13.50;4.73;;;6.90;99.90;;;;;;4975741;28;20200;-69
2022/03/20 00:03:43;;;;;;;7.57;5.17;;;6.90;99.90;;;;;;4975175;28;20636;-69
2022/03/20 00:06:08;;;;;;;12.37;4.53;;;6.80;99.90;;;;;;4987610;28;20185;-70
2022/03/20 00:08:34;;;;;;;5.63;3.70;;;6.80;99.90;;;;;;4978122;28;20207;-70
2022/03/20 00:11:01;;;;;;;6.87;3.60;;;6.80;99.90;;;;;;4973465;28;20216;-69
2022/03/20 00:13:28;;;;;;;5.60;4.23;;;6.80;99.90;;;;;;4977016;28;20207;-69
2022/03/20 00:15:55;;;;;;;6.53;4.67;;;6.80;99.90;;;;;;4984171;28;20220;-69
2022/03/20 00:18:26;;;;;;;4.50;4.03;;;6.70;99.90;;;;;;4989843;28;20226;-69
2022/03/20 00:20:58;;;;;;;5.37;4.87;;;6.60;99.90;;;;;;4961053;28;20192;-69
2022/03/20 00:23:24;;;;;;;6.07;4.30;;;6.60;99.90;;;;;;4976581;28;20216;-69
2022/03/20 00:25:52;;;;;;;6.00;4.60;;;6.70;99.90;;;;;;4976017;28;20731;-69
2022/03/20 00:28:19;;;;;;;8.53;4.73;;;6.60;99.90;;;;;;4960180;28;20245;-70
2022/03/20 00:30:47;;;;;;;9.40;5.47;;;6.60;99.90;;;;;;4636782;28;9999725;-71
2022/03/20 00:33:13;;;;;;;12.30;5.70;;;6.60;99.90;;;;;;4981473;28;20196;-72
2022/03/20 00:35:39;;;;;;;15.53;6.87;;;6.60;99.90;;;;;;4972471;28;20188;-72
2022/03/20 00:38:06;;;;;;;11.57;6.23;;;6.70;99.90;;;;;;4982871;28;20250;-72
2022/03/20 00:40:32;;;;;;;14.07;6.17;;;6.70;99.90;;;;;;4971544;28;20680;-73
2022/03/20 00:42:58;;;;;;;9.20;6.10;;;6.60;99.90;;;;;;4972304;28;20196;-75
2022/03/20 00:45:24;;;;;;;7.50;5.60;;;6.50;99.90;;;;;;4972259;28;20207;-72
2022/03/20 00:47:50;;;;;;;10.70;7.30;;;6.50;99.90;;;;;;4971755;28;20638;-75
2022/03/20 00:50:16;;;;;;;12.27;7.20;;;6.50;99.90;;;;;;4970836;28;20239;-72
2022/03/20 00:52:42;;;;;;;15.07;7.97;;;6.60;99.90;;;;;;4973782;28;20216;-72
2022/03/20 00:55:08;;;;;;;8.77;6.20;;;6.60;99.90;;;;;;4977738;28;20307;-72
2022/03/20 00:57:34;;;;;;;11.70;6.83;;;6.50;99.90;;;;;;4971774;28;20223;-68
2022/03/20 01:00:00;;;;;;;12.20;7.13;;;6.50;99.90;;;;;;4979850;28;20653;-71
2022/03/20 01:02:26;;;;;;;10.57;6.63;;;6.50;99.90;;;;;;4972139;28;20192;-75
2022/03/20 01:04:51;;;;;;;11.40;7.87;;;6.40;99.90;;;;;;4971050;28;20200;-73
2022/03/20 01:07:17;;;;;;;14.93;6.43;;;6.40;99.90;;;;;;4954114;28;20192;-73
2022/03/20 01:09:43;;;;;;;16.30;7.60;;;6.30;99.90;;;;;;4970366;28;20572;-71
2022/03/20 01:12:09;;;;;;;15.83;7.97;;;6.30;99.90;;;;;;4971825;28;20204;-71
2022/03/20 01:14:36;;;;;;;13.70;7.57;;;6.20;99.90;;;;;;4986900;28;20510;-72
2022/03/20 01:17:02;;;;;;;11.50;6.77;;;6.20;99.90;;;;;;4971432;28;20188;-73
2022/03/20 01:19:28;;;;;;;10.03;6.80;;;6.10;99.90;;;;;;4979283;28;20558;-75
2022/03/20 01:21:55;;;;;;;9.07;6.50;;;6.10;99.90;;;;;;4981531;28;20188;-75
2022/03/20 01:24:24;;;;;;;12.67;6.90;;;6.10;99.90;;;;;;4982134;28;20191;-76
2022/03/20 01:26:49;;;;;;;11.80;6.27;;;6.10;99.90;;;;;;4977154;28;20184;-72
2022/03/20 01:29:15;;;;;;;8.50;6.20;;;6.00;99.90;;;;;;4973126;28;20566;-73
2022/03/20 01:31:41;;;;;;;11.57;6.60;;;5.90;99.90;;;;;;4973150;28;20193;-72
2022/03/20 01:34:06;;;;;;;8.50;6.00;;;5.90;99.90;;;;;;4953883;28;20188;-71
2022/03/20 01:36:33;;;;;;;15.53;6.97;;;5.90;99.90;;;;;;4974979;28;20196;-71
2022/03/20 01:38:58;;;;;;;8.43;6.10;;;5.80;99.90;;;;;;4975034;28;20193;-71
2022/03/20 01:41:25;;;;;;;7.37;5.70;;;5.80;99.90;;;;;;4991895;28;20707;-71
2022/03/20 01:43:59;;;;;;;12.03;6.43;;;5.70;99.90;;;;;;4971590;28;20231;-72
2022/03/20 01:46:25;;;;;;;9.43;5.73;;;5.70;99.90;;;;;;4977326;28;20231;-72
2022/03/20 01:48:50;;;;;;;11.57;6.60;;;5.70;99.90;;;;;;4982269;28;20600;-71
2022/03/20 01:51:17;;;;;;;7.67;6.03;;;5.60;99.90;;;;;;4981261;28;20311;-71
2022/03/20 01:53:43;;;;;;;9.07;5.07;;;5.50;99.90;;;;;;4982623;28;20207;-72
2022/03/20 01:56:10;;;;;;;9.07;6.00;;;5.40;99.90;;;;;;4975179;28;20193;-71
2022/03/20 01:58:36;;;;;;;8.43;5.63;;;5.30;99.90;;;;;;4987353;28;20193;-71
2022/03/20 02:01:03;;;;;;;13.43;6.20;;;5.40;99.90;;;;;;4974661;28;20299;-71
2022/03/20 02:03:29;;;;;;;9.67;5.80;;;5.30;99.90;;;;;;4974605;28;20188;-72
2022/03/20 02:05:55;;;;;;;8.57;6.13;;;5.40;99.90;;;;;;4974425;28;20247;-72
2022/03/20 02:08:25;;;;;;;11.37;6.13;;;5.60;99.90;;;;;;4973525;28;20205;-71
2022/03/20 02:10:52;;;;;;;7.53;5.73;;;5.60;99.90;;;;;;4969737;28;20222;-72
2022/03/20 02:13:21;;;;;;;10.17;5.57;;;5.50;99.90;;;;;;4977464;28;20196;-72
2022/03/20 02:15:48;;;;;;;15.63;7.73;;;5.40;99.90;;;;;;4974464;28;20192;-72
2022/03/20 02:18:14;;;;;;;10.63;6.80;;;5.40;99.90;;;;;;4973625;28;20204;-72
2022/03/20 02:20:40;;;;;;;15.40;5.70;;;5.40;99.90;;;;;;4956992;28;20192;-71
2022/03/20 02:23:07;;;;;;;10.03;6.33;;;5.40;99.90;;;;;;4973233;28;20192;-71
2022/03/20 02:25:33;;;;;;;10.20;6.13;;;5.40;99.90;;;;;;4973265;28;20271;-71
2022/03/20 02:27:59;;;;;;;12.27;6.73;;;5.20;99.90;;;;;;4974099;28;20185;-71
2022/03/20 02:30:30;;;;;;;9.97;6.70;;;5.20;99.90;;;;;;4973198;28;20584;-72
2022/03/20 02:32:56;;;;;;;10.67;7.33;;;5.10;99.90;;;;;;4971882;28;20563;-71
2022/03/20 02:35:22;;;;;;;9.80;6.17;;;5.10;99.90;;;;;;4964395;28;20195;-72
2022/03/20 02:37:50;;;;;;;14.60;8.43;;;5.00;99.90;;;;;;4991515;28;20279;-72
2022/03/20 02:40:17;;;;;;;11.87;7.37;;;4.90;99.90;;;;;;4982577;28;20184;-71
2022/03/20 02:42:46;;;;;;;9.40;7.20;;;5.00;99.90;;;;;;4988103;28;20239;-71
2022/03/20 02:45:20;;;;;;;13.83;8.40;;;5.00;99.90;;;;;;4974198;28;20220;-71
2022/03/20 02:47:46;;;;;;;9.93;7.17;;;5.00;99.90;;;;;;4972715;28;20180;-72
2022/03/20 02:50:16;;;;;;;9.97;7.50;;;5.00;99.90;;;;;;4972585;28;20212;-71
2022/03/20 02:52:45;;;;;;;11.00;6.57;;;4.90;99.90;;;;;;4978380;28;20196;-72
2022/03/20 02:55:12;;;;;;;8.50;5.83;;;4.90;99.90;;;;;;4991519;28;20192;-72
2022/03/20 02:57:38;;;;;;;10.80;7.03;;;4.90;99.90;;;;;;4987888;28;20189;-71
2022/03/20 03:00:06;;;;;;;14.03;7.20;;;4.80;99.90;;;;;;4972824;28;20200;-71
2022/03/20 03:02:37;;;;;;;10.67;6.50;;;4.80;99.90;;;;;;4956729;28;20185;-71
2022/03/20 03:05:03;;;;;;;11.20;6.57;;;4.80;99.90;;;;;;4973648;28;20220;-71
2022/03/20 03:07:30;;;;;;;11.13;6.37;;;4.80;99.90;;;;;;4972967;28;20189;-71
2022/03/20 03:12:41;;;;;;;13.87;6.40;;;4.90;99.90;;;;;;4978119;28;20255;-72
2022/03/20 03:15:20;;;;;;;9.17;7.03;;;4.90;99.90;;;;;;4976273;28;20188;-71
2022/03/20 03:17:47;;;;;;;13.90;6.40;;;4.80;99.90;;;;;;4981747;28;20199;-72
2022/03/20 03:20:13;;;;;;;9.30;5.93;;;4.80;99.90;;;;;;4976145;28;20193;-71
2022/03/20 03:22:39;;;;;;;9.40;5.97;;;4.70;99.90;;;;;;4977605;28;20263;-71
2022/03/20 03:25:08;;;;;;;14.33;6.47;;;4.80;99.90;;;;;;4986598;28;20188;-71
2022/03/20 03:27:37;;;;;;;9.63;6.17;;;4.70;99.90;;;;;;4986201;28;20616;-71
2022/03/20 03:30:04;;;;;;;10.90;6.23;;;4.80;99.90;;;;;;4977559;28;20220;-70
2022/03/20 03:32:30;;;;;;;10.60;6.47;;;4.80;99.90;;;;;;4975945;28;20263;-71
2022/03/20 03:37:40;;;;;;;11.37;5.97;;;4.70;99.90;;;;;;4986558;28;20211;-71
2022/03/20 03:40:07;;;;;;;9.20;5.90;;;4.70;99.90;;;;;;4959597;28;21620;-71
2022/03/20 03:42:34;;;;;;;7.33;6.10;;;4.70;99.90;;;;;;4977197;28;20207;-71
2022/03/20 03:45:01;;;;;;;11.10;6.67;;;4.90;99.90;;;;;;4959795;28;20199;-71
2022/03/20 03:47:28;;;;;;;14.47;7.37;;;4.70;99.90;;;;;;4976149;28;20216;-71
2022/03/20 03:49:54;;;;;;;10.80;6.23;;;4.70;99.90;;;;;;4977405;28;20263;-71
2022/03/20 03:52:20;;;;;;;11.37;6.97;;;4.60;99.90;;;;;;4987256;28;20642;-71
2022/03/20 03:54:46;;;;;;;11.00;7.77;;;4.90;99.90;;;;;;4959275;28;20193;-71
2022/03/20 03:57:12;;;;;;;13.73;7.77;;;5.00;99.90;;;;;;4989003;28;20184;-71
2022/03/20 03:59:38;;;;;;;12.40;7.77;;;5.00;99.90;;;;;;4976942;28;20187;-70
2022/03/20 04:02:04;;;;;;;11.33;7.77;;;5.10;99.90;;;;;;4977299;28;20192;-71
2022/03/20 04:04:30;;;;;;;13.63;8.93;;;5.10;99.90;;;;;;4981991;28;20188;-70
2022/03/20 04:06:56;;;;;;;15.23;8.03;;;5.00;99.90;;;;;;4967175;28;20198;-71
2022/03/20 04:09:22;;;;;;;15.23;8.57;;;5.00;99.90;;;;;;4974994;28;20200;-71
2022/03/20 04:11:48;;;;;;;16.17;10.03;;;5.00;99.90;;;;;;4958953;28;20192;-71
2022/03/20 04:14:14;;;;;;;14.47;8.80;;;5.00;99.90;;;;;;4976583;28;20188;-71
2022/03/20 04:16:40;;;;;;;18.40;9.63;;;4.90;99.90;;;;;;4987833;28;20191;-71
2022/03/20 04:19:05;;;;;;;16.53;10.43;;;5.00;99.90;;;;;;4975841;28;20606;-71
2022/03/20 04:21:31;;;;;;;19.67;10.60;;;4.90;99.90;;;;;;4976244;28;20185;-71
2022/03/20 04:23:57;;;;;;;20.83;12.37;;;4.80;99.90;;;;;;4974707;28;20264;-71
2022/03/20 04:26:24;;;;;;;18.70;10.93;;;4.70;99.90;;;;;;4976065;28;20188;-71
2022/03/20 04:28:52;;;;;;;19.03;12.23;;;4.70;99.90;;;;;;4993670;28;20528;-71
2022/03/20 04:31:19;;;;;;;17.30;11.30;;;4.80;99.90;;;;;;4975249;28;20216;-71
2022/03/20 04:33:48;;;;;;;15.47;11.30;;;4.70;99.90;;;;;;4971134;28;20202;-72
2022/03/20 04:36:14;;;;;;;20.10;13.07;;;4.70;99.90;;;;;;4984318;28;20554;-70
2022/03/20 04:38:40;;;;;;;16.60;12.00;;;4.70;99.90;;;;;;4963008;28;20257;-70
2022/03/20 04:41:06;;;;;;;20.23;13.57;;;4.60;99.90;;;;;;4975082;28;20216;-71
2022/03/20 04:43:32;;;;;;;19.30;11.73;;;4.60;99.90;;;;;;4975320;28;20676;-71
2022/03/20 04:45:58;;;;;;;17.87;10.17;;;4.80;99.90;;;;;;4976119;28;20193;-71
2022/03/20 04:59:22;;;;;;;17.90;12.60;;;5.00;99.90;;;;;;4982450;28;20557;-71
2022/03/20 05:01:48;;;;;;;30.10;12.63;;;5.10;99.90;;;;;;4970873;28;20197;-71
2022/03/20 05:04:14;;;;;;;25.97;12.73;;;5.00;99.90;;;;;;4974569;28;20204;-70
2022/03/20 05:06:41;;;;;;;19.23;12.57;;;4.90;99.90;;;;;;4975987;28;20271;-71
2022/03/20 05:14:35;;;;;;;27.20;14.03;;;5.30;99.90;;;;;;4975771;28;20263;-71
2022/03/20 05:17:06;;;;;;;24.73;15.00;;;5.40;99.90;;;;;;4962809;28;20228;-71
2022/03/20 05:19:37;;;;;;;28.00;13.83;;;5.30;99.90;;;;;;4992549;28;20642;-71
2022/03/20 05:22:05;;;;;;;25.07;13.40;;;5.20;99.90;;;;;;4980131;28;20325;-71
2022/03/20 05:24:33;;;;;;;25.13;14.70;;;5.10;99.90;;;;;;4975365;28;20180;-71
2022/03/20 05:26:59;;;;;;;26.17;15.60;;;5.00;99.90;;;;;;4973798;28;20563;-71
2022/03/20 05:29:24;;;;;;;22.37;13.30;;;4.90;99.90;;;;;;4973804;28;20697;-71
2022/03/20 05:31:50;;;;;;;24.97;15.93;;;4.90;99.90;;;;;;4985733;28;20199;-71
2022/03/20 05:34:16;;;;;;;21.00;13.43;;;5.00;99.90;;;;;;4973854;28;20191;-71
2022/03/20 05:36:43;;;;;;;21.00;12.83;;;5.00;99.90;;;;;;4969849;28;20199;-71
2022/03/20 05:39:08;;;;;;;25.20;14.17;;;5.00;99.90;;;;;;4963945;28;20192;-71
2022/03/20 05:41:46;;;;;;;22.23;14.43;;;5.00;99.90;;;;;;4983319;28;20195;-71
2022/03/20 05:44:12;;;;;;;25.97;15.60;;;4.90;99.90;;;;;;4989015;28;20667;-71
2022/03/20 05:46:40;;;;;;;25.87;15.73;;;5.00;99.90;;;;;;4974747;28;20651;-71
2022/03/20 05:49:09;;;;;;;26.80;15.03;;;5.00;99.90;;;;;;4973533;28;20196;-71
2022/03/20 05:51:37;;;;;;;24.00;13.90;;;5.20;99.90;;;;;;4974806;28;20263;-71
2022/03/20 05:54:02;;;;;;;23.53;15.10;;;5.30;99.90;;;;;;4957661;28;20199;-71
2022/03/20 05:59:12;;;;;;;22.43;15.30;;;5.10;99.90;;;;;;4974070;28;20620;-71
2022/03/20 06:01:39;;;;;;;23.20;14.90;;;5.00;99.90;;;;;;4970364;28;20198;-71
2022/03/20 06:04:06;;;;;;;24.80;14.83;;;5.00;99.90;;;;;;4957409;28;20251;-73
2022/03/20 06:06:37;;;;;;;22.40;14.73;;;5.00;99.90;;;;;;4973366;28;20193;-71
2022/03/20 06:09:06;;;;;;;22.97;14.20;;;4.90;99.90;;;;;;4974275;28;20659;-71
2022/03/20 06:11:34;;;;;;;22.60;15.20;;;5.00;99.90;;;;;;4973410;28;20216;-71
2022/03/20 06:14:03;;;;;;;27.10;15.60;;;5.10;99.90;;;;;;4972908;28;20220;-72
2022/03/20 06:16:30;;;;;;;31.50;16.90;;;5.20;99.90;;;;;;4973397;28;20543;-71
2022/03/20 06:18:57;;;;;;;27.17;15.87;;;5.30;99.90;;;;;;4975128;28;20188;-71
2022/03/20 06:21:23;;;;;;;29.10;16.30;;;5.50;99.90;;;;;;4974621;28;20193;-71
2022/03/20 06:23:49;;;;;;;28.23;16.23;;;5.20;99.90;;;;;;4973480;28;20649;-71
2022/03/20 06:26:17;;;;;;;29.93;18.90;;;5.10;99.90;;;;;;4973176;28;20189;-70
2022/03/20 06:28:43;;;;;;;31.43;17.83;;;5.00;99.90;;;;;;4987023;28;20189;-69
2022/03/20 06:31:12;;;;;;;32.73;17.97;;;4.90;99.90;;;;;;4974315;28;20236;-71
2022/03/20 06:33:39;;;;;;;32.40;19.53;;;4.80;99.90;;;;;;4973537;28;20193;-70
2022/03/20 06:36:11;;;;;;;33.57;19.63;;;4.90;99.90;;;;;;4983732;28;20195;-71
2022/03/20 06:38:38;;;;;;;33.40;18.70;;;5.00;99.90;;;;;;4959789;28;20192;-71
2022/03/20 06:41:05;;;;;;;33.77;18.83;;;5.00;99.90;;;;;;4974023;28;20271;-71
2022/03/20 06:43:31;;;;;;;35.77;20.37;;;5.10;99.90;;;;;;4979782;28;20195;-71
2022/03/20 06:45:57;;;;;;;25.57;17.63;;;5.10;99.90;;;;;;4987932;28;20184;-71
2022/03/20 06:48:24;;;;;;;35.70;20.63;;;5.10;99.90;;;;;;4978406;28;20189;-70
2022/03/20 06:50:50;;;;;;;36.87;19.80;;;5.10;99.90;;;;;;4976912;28;20371;-71
2022/03/20 06:53:18;;;;;;;32.67;19.07;;;5.00;99.90;;;;;;4976916;28;20287;-70
2022/03/20 06:55:44;;;;;;;39.33;20.20;;;4.80;99.90;;;;;;4977861;28;20200;-71
2022/03/20 06:58:11;;;;;;;38.30;20.43;;;4.70;99.90;;;;;;4976403;28;20563;-71
2022/03/20 07:00:37;;;;;;;35.47;20.50;;;4.70;99.90;;;;;;4978057;28;20223;-71
2022/03/20 07:03:03;;;;;;;32.17;18.87;;;4.70;99.90;;;;;;4976593;28;20271;-71
2022/03/20 07:05:33;;;;;;;44.70;22.97;;;4.80;99.90;;;;;;4972811;28;20192;-71
2022/03/20 07:08:03;;;;;;;42.37;22.37;;;4.80;99.90;;;;;;4976255;28;20203;-71
2022/03/20 07:10:29;;;;;;;41.10;23.43;;;4.90;99.90;;;;;;4977830;28;20665;-71
2022/03/20 07:15:41;;;;;;;39.33;23.33;;;4.60;99.90;;;;;;4976572;28;20207;-70
2022/03/20 07:18:08;;;;;;;36.50;23.83;;;4.60;99.90;;;;;;4977541;28;20189;-71
2022/03/20 07:20:34;;;;;;;38.60;22.47;;;4.50;99.90;;;;;;4976246;28;20200;-72
2022/03/20 07:23:01;;;;;;;39.13;22.17;;;4.20;99.90;;;;;;4975848;28;20204;-71
2022/03/20 07:30:56;;;;;;;39.87;22.70;;;3.80;99.90;;;;;;4977492;28;20239;-70
2022/03/20 07:33:24;;;;;;;43.03;21.73;;;3.30;99.90;;;;;;4988606;28;20257;-70
2022/03/20 07:35:53;;;;;;;38.47;25.27;;;3.00;99.90;;;;;;4981946;28;20200;-72
2022/03/20 07:38:19;;;;;;;43.57;23.83;;;2.70;99.90;;;;;;4977385;28;20531;-71
2022/03/20 07:40:44;;;;;;;42.60;24.27;;;2.70;99.90;;;;;;4943971;28;20223;-71
2022/03/20 07:43:10;;;;;;;45.27;23.20;;;2.70;99.90;;;;;;4959814;28;20193;-71
2022/03/20 07:45:35;;;;;;;48.13;27.27;;;2.70;99.90;;;;;;4975875;28;20193;-74
2022/03/20 07:48:02;;;;;;;46.37;25.27;;;2.50;99.90;;;;;;4976960;28;20216;-71
2022/03/20 07:50:28;;;;;;;41.97;24.77;;;2.40;99.90;;;;;;4975356;28;20259;-71
2022/03/20 07:52:56;;;;;;;51.33;25.00;;;2.50;99.90;;;;;;4976092;28;20603;-72
2022/03/20 07:55:23;;;;;;;49.30;26.57;;;2.50;99.90;;;;;;4959843;28;20220;-71
2022/03/20 07:57:49;;;;;;;50.13;27.80;;;2.70;99.90;;;;;;4975187;28;20180;-69
2022/03/20 08:00:17;;;;;;;49.07;26.10;;;2.90;99.90;;;;;;4959961;28;20204;-70
2022/03/20 08:02:44;;;;;;;49.37;24.13;;;3.00;99.90;;;;;;4975908;28;20201;-69
2022/03/20 08:05:10;;;;;;;51.57;27.00;;;2.90;99.90;;;;;;4984986;28;20199;-69
2022/03/20 08:07:37;;;;;;;45.60;24.30;;;2.90;99.90;;;;;;4975110;28;20199;-68
2022/03/20 08:10:07;;;;;;;45.47;25.67;;;2.90;99.90;;;;;;4975623;28;20570;-68
2022/03/20 08:12:33;;;;;;;56.03;27.37;;;2.80;99.90;;;;;;4975128;28;20204;-68
2022/03/20 08:14:59;;;;;;;54.50;29.10;;;2.80;99.90;;;;;;4963812;28;20192;-70
2022/03/20 08:17:25;;;;;;;48.90;29.10;;;3.00;99.90;;;;;;4988811;28;20245;-68
2022/03/20 08:19:50;;;;;;;57.43;31.57;;;3.30;99.90;;;;;;4979757;28;20224;-69
2022/03/20 08:22:16;;;;;;;50.13;28.93;;;3.50;99.90;;;;;;4974929;28;20195;-69
2022/03/20 08:24:44;;;;;;;47.53;29.13;;;3.50;99.90;;;;;;4974741;28;20267;-69
2022/03/20 08:27:10;;;;;;;51.23;28.93;;;3.60;99.90;;;;;;4983188;28;20191;-68
2022/03/20 08:29:36;;;;;;;53.13;28.57;;;3.70;99.90;;;;;;4987433;28;20195;-68
2022/03/20 08:32:02;;;;;;;54.93;27.80;;;4.00;99.90;;;;;;4991272;28;20191;-72
2022/03/20 08:34:28;;;;;;;55.40;29.37;;;4.10;99.90;;;;;;4984371;28;20545;-68
2022/03/20 08:36:54;;;;;;;59.87;32.00;;;4.20;99.90;;;;;;4974847;28;20195;-67
2022/03/20 08:39:20;;;;;;;50.63;29.70;;;4.50;99.90;;;;;;4975963;28;20220;-67
2022/03/20 08:41:47;;;;;;;52.73;29.83;;;4.60;99.90;;;;;;4958446;28;20220;-67
2022/03/20 08:44:14;;;;;;;49.87;28.93;;;5.00;99.90;;;;;;4975735;28;20189;-68
2022/03/20 08:46:40;;;;;;;54.43;29.03;;;5.20;99.90;;;;;;4975659;28;20303;-71
2022/03/20 08:49:09;;;;;;;49.80;28.57;;;5.40;99.90;;;;;;4980214;28;20284;-68
2022/03/20 08:51:35;;;;;;;50.03;28.17;;;5.30;99.90;;;;;;4981722;28;20736;-67
2022/03/20 08:54:02;;;;;;;49.40;28.63;;;5.20;99.90;;;;;;4975686;28;20559;-68
2022/03/20 08:56:28;;;;;;;47.60;27.00;;;5.40;99.90;;;;;;4974352;28;20199;-66
2022/03/20 08:58:55;;;;;;;53.63;27.97;;;5.50;99.90;;;;;;4984727;28;20210;-67
2022/03/20 09:01:21;;;;;;;42.30;26.23;;;6.00;99.90;;;;;;4977428;28;20656;-67
2022/03/20 09:03:50;;;;;;;48.07;27.07;;;6.60;99.90;;;;;;4975678;28;20193;-67
2022/03/20 09:06:22;;;;;;;46.97;26.23;;;6.90;99.90;;;;;;4974611;28;20196;-68
2022/03/20 09:08:49;;;;;;;42.07;26.03;;;7.20;99.90;;;;;;4992979;28;20204;-70
2022/03/20 09:11:16;;;;;;;49.53;27.70;;;7.60;99.90;;;;;;4977837;28;20212;-67
2022/03/20 09:13:42;;;;;;;43.47;25.07;;;7.80;99.90;;;;;;4974278;28;20193;-67
2022/03/20 09:19:03;;;;;;;41.07;25.63;;;7.80;99.90;;;;;;4974706;28;20618;-67
2022/03/20 09:21:31;;;;;;;40.33;23.97;;;7.60;99.90;;;;;;4972241;28;20184;-67
2022/03/20 09:23:57;;;;;;;41.73;25.33;;;7.60;99.90;;;;;;4975290;28;20189;-67
2022/03/20 09:26:23;;;;;;;42.10;25.60;;;7.70;99.90;;;;;;4974220;28;20602;-67
2022/03/20 09:28:49;;;;;;;42.07;27.10;;;7.80;99.90;;;;;;4958916;28;20204;-68
2022/03/20 09:31:15;;;;;;;44.30;26.10;;;7.90;99.90;;;;;;4992133;28;20616;-68
2022/03/20 09:33:44;;;;;;;40.63;24.53;;;7.80;99.90;;;;;;4970319;28;20188;-68
2022/03/20 09:36:10;;;;;;;40.87;23.80;;;7.30;99.90;;;;;;4974682;28;20251;-68
2022/03/20 09:38:36;;;;;;;45.03;25.80;;;7.40;99.90;;;;;;4975218;28;20666;-68
2022/03/20 09:41:11;;;;;;;44.73;27.97;;;7.10;99.90;;;;;;4973905;28;20193;-68
2022/03/20 09:43:39;;;;;;;43.57;25.23;;;6.90;99.90;;;;;;4973165;28;20196;-68
2022/03/20 09:46:06;;;;;;;45.13;26.63;;;7.00;99.90;;;;;;4974714;28;20263;-69
2022/03/20 09:48:31;;;;;;;43.00;25.50;;;6.50;99.90;;;;;;4981145;28;20268;-69
2022/03/20 09:50:58;;;;;;;45.67;25.50;;;6.60;99.90;;;;;;4974786;28;20208;-69
2022/03/20 09:53:25;;;;;;;48.10;26.37;;;6.60;99.90;;;;;;4975208;28;20196;-69
2022/03/20 09:55:54;;;;;;;42.67;26.40;;;6.60;99.90;;;;;;4994262;28;20184;-69
2022/03/20 09:58:24;;;;;;;43.83;25.60;;;6.50;99.90;;;;;;4992183;28;20208;-69
2022/03/20 10:00:50;;;;;;;45.73;27.03;;;6.90;99.90;;;;;;4979622;28;20196;-69
2022/03/20 10:03:24;;;;;;;41.33;25.17;;;7.00;99.90;;;;;;4984239;28;20658;-69
2022/03/20 10:06:06;;;;;;;50.77;28.83;;;7.00;99.90;;;;;;4957954;28;20189;-70
2022/03/20 10:08:32;;;;;;;45.97;25.70;;;7.20;99.90;;;;;;4973397;28;20204;-69
2022/03/20 10:11:15;;;;;;;43.43;25.17;;;7.20;99.90;;;;;;4956949;28;20712;-69
2022/03/20 10:14:04;;;;;;;42.60;25.57;;;7.20;99.90;;;;;;4972966;28;20192;-70
2022/03/20 10:16:30;;;;;;;44.70;25.80;;;7.00;99.90;;;;;;4974368;28;20189;-69
2022/03/20 10:18:55;;;;;;;45.07;24.47;;;7.10;99.90;;;;;;4973168;28;20199;-70
2022/03/20 10:21:21;;;;;;;41.40;25.80;;;7.30;99.90;;;;;;4973649;28;20239;-69
2022/03/20 10:23:47;;;;;;;45.00;26.57;;;7.40;99.90;;;;;;4957261;28;20197;-69
2022/03/20 10:26:14;;;;;;;45.57;27.80;;;7.20;99.90;;;;;;4973257;28;20192;-69
2022/03/20 10:28:55;;;;;;;44.20;26.90;;;7.40;99.90;;;;;;4974508;28;20248;-69
2022/03/20 10:31:21;;;;;;;39.23;25.37;;;7.60;99.90;;;;;;4972581;28;20215;-70
2022/03/20 10:34:07;;;;;;;43.53;25.63;;;8.00;99.90;;;;;;4961890;28;20199;-69
2022/03/20 10:36:34;;;;;;;47.47;27.60;;;8.00;99.90;;;;;;4987756;28;20196;-70
2022/03/20 10:38:59;;;;;;;41.63;25.87;;;8.30;99.90;;;;;;4972992;28;20199;-70
2022/03/20 10:41:34;;;;;;;44.70;26.93;;;8.30;99.90;;;;;;4989563;28;20271;-69
2022/03/20 10:44:01;;;;;;;47.73;27.80;;;8.30;99.90;;;;;;4974130;28;20211;-70
2022/03/20 10:46:31;;;;;;;42.30;26.70;;;8.30;99.90;;;;;;4974585;28;20204;-69
2022/03/20 10:49:06;;;;;;;42.17;25.37;;;8.50;99.90;;;;;;4973814;28;20600;-69
2022/03/20 10:51:37;;;;;;;44.67;26.50;;;8.90;99.90;;;;;;4974037;28;20236;-70
2022/03/20 10:54:14;;;;;;;42.20;25.93;;;9.10;99.90;;;;;;4974467;28;20203;-69
2022/03/20 10:56:57;;;;;;;42.20;26.30;;;9.00;99.90;;;;;;4973698;28;20184;-70
2022/03/20 10:59:24;;;;;;;41.87;25.67;;;9.10;99.90;;;;;;4973880;28;20185;-70
2022/03/20 11:01:50;;;;;;;43.53;26.07;;;9.10;99.90;;;;;;4972521;28;20229;-70
2022/03/20 11:04:23;;;;;;;43.60;27.27;;;9.40;99.90;;;;;;4972285;28;20193;-69
2022/03/20 11:06:50;;;;;;;41.43;24.97;;;9.40;99.90;;;;;;4968293;28;21598;-69
2022/03/20 11:09:16;;;;;;;44.53;25.63;;;9.40;99.90;;;;;;4972587;28;20613;-69
2022/03/20 11:11:51;;;;;;;40.97;25.50;;;9.40;99.90;;;;;;4972910;28;20217;-69
2022/03/20 11:14:22;;;;;;;34.83;23.83;;;9.40;99.90;;;;;;4974804;28;20341;-69
2022/03/20 11:16:51;;;;;;;41.30;26.30;;;9.40;99.90;;;;;;4978611;28;20654;-69
2022/03/20 11:19:23;;;;;;;41.70;26.57;;;9.30;99.90;;;;;;4972436;28;20236;-69
2022/03/20 11:21:52;;;;;;;41.50;24.60;;;9.00;99.90;;;;;;4973730;28;20196;-70
2022/03/20 11:24:19;;;;;;;39.23;25.67;;;9.20;99.90;;;;;;4973730;28;20546;-69
2022/03/20 11:26:49;;;;;;;39.60;24.17;;;9.50;99.90;;;;;;4972362;28;20189;-70
2022/03/20 11:29:17;;;;;;;41.27;25.40;;;9.80;99.90;;;;;;4972425;28;20212;-70
2022/03/20 11:31:44;;;;;;;38.07;24.30;;;10.10;99.90;;;;;;4974766;28;20740;-69
2022/03/20 11:34:12;;;;;;;36.20;25.43;;;10.30;99.90;;;;;;4977393;28;20201;-69
2022/03/20 11:37:07;;;;;;;42.17;25.20;;;10.30;99.90;;;;;;4976000;28;20568;-69
2022/03/20 11:39:34;;;;;;;36.30;25.53;;;10.30;99.90;;;;;;4976969;28;20636;-69
2022/03/20 11:42:19;;;;;;;41.53;26.43;;;10.40;99.90;;;;;;4977055;28;20195;-69
2022/03/20 11:45:19;;;;;;;41.23;26.83;;;10.40;99.90;;;;;;4976083;28;20649;-72
2022/03/20 11:48:10;;;;;;;42.10;25.20;;;10.40;99.90;;;;;;4968668;28;20201;-69
2022/03/20 11:50:44;;;;;;;41.87;26.53;;;10.40;99.90;;;;;;4977073;28;20212;-69
2022/03/20 11:53:10;;;;;;;43.10;27.67;;;10.40;99.90;;;;;;4985145;28;20274;-69
2022/03/20 11:55:42;;;;;;;41.37;25.87;;;10.40;99.90;;;;;;4994336;28;20303;-70
2022/03/20 11:58:17;;;;;;;42.20;26.57;;;10.40;99.90;;;;;;4975173;28;20263;-70
2022/03/20 12:00:57;;;;;;;43.57;24.70;;;10.50;99.90;;;;;;4975889;28;20203;-70
2022/03/20 12:03:43;;;;;;;35.87;24.67;;;10.50;99.90;;;;;;4988096;28;20594;-70
2022/03/20 12:06:26;;;;;;;42.73;25.00;;;10.30;99.90;;;;;;4995201;28;20183;-70
2022/03/20 12:09:23;;;;;;;42.53;25.70;;;10.40;99.90;;;;;;4985723;28;20664;-70
2022/03/20 12:12:03;;;;;;;37.23;23.67;;;10.30;99.90;;;;;;4984517;28;20221;-70
2022/03/20 12:14:32;;;;;;;36.67;23.88;;;10.50;99.90;;;;;;4976530;28;20605;-70
2022/03/20 12:17:00;;;;;;;40.50;26.67;;;10.60;99.90;;;;;;4974803;28;20192;-69
2022/03/20 12:19:43;;;;;;;41.88;25.73;;;10.80;99.90;;;;;;4976292;28;20247;-70
2022/03/20 12:22:15;;;;;;;41.03;24.83;;;10.80;99.90;;;;;;4976147;28;20181;-70
2022/03/20 12:24:45;;;;;;;34.92;22.88;;;10.90;99.90;;;;;;4986414;28;20246;-69
2022/03/20 12:27:23;;;;;;;34.45;25.98;;;10.90;99.90;;;;;;4975445;28;20251;-71
2022/03/20 12:29:53;;;;;;;38.72;24.92;;;11.00;99.90;;;;;;4976326;28;20235;-70
2022/03/20 12:32:20;;;;;;;40.63;26.40;;;11.30;99.90;;;;;;4973399;28;20197;-70
2022/03/20 12:35:08;;;;;;;35.17;23.75;;;11.30;99.90;;;;;;4976236;28;20654;-71
2022/03/20 12:40:10;;;;;;;39.65;27.13;;;11.50;99.90;;;;;;4988269;28;20646;-71
2022/03/20 12:42:42;;;;;;;38.55;24.60;;;11.60;99.90;;;;;;4979871;28;20176;-71
2022/03/20 12:45:10;;;;;;;40.38;26.42;;;11.80;99.90;;;;;;4983215;28;20184;-71
2022/03/20 12:47:36;;;;;;;38.47;25.15;;;12.10;99.90;;;;;;4989559;28;20657;-71
2022/03/20 12:50:10;;;;;;;38.15;25.27;;;12.10;99.90;;;;;;4975574;28;20729;-71
2022/03/20 12:52:37;;;;;;;38.92;27.02;;;12.10;99.90;;;;;;4977278;28;20195;-71
2022/03/20 12:55:08;;;;;;;47.28;27.13;;;12.10;99.90;;;;;;4988597;28;20185;-70
2022/03/20 12:57:43;;;;;;;44.40;27.67;;;11.90;99.90;;;;;;4976136;28;20197;-70
2022/03/20 13:00:23;;;;;;;42.60;26.10;;;11.60;99.90;;;;;;4975397;28;20188;-70
2022/03/20 13:03:07;;;;;;;39.90;26.70;;;11.20;99.90;;;;;;4982750;28;20632;-71
2022/03/20 13:05:39;;;;;;;41.83;28.83;;;10.60;99.90;;;;;;4984201;28;20274;-70
2022/03/20 13:08:09;;;;;;;39.10;26.03;;;10.50;99.90;;;;;;4975783;28;20188;-70
2022/03/20 13:10:40;;;;;;;39.90;25.97;;;10.40;99.90;;;;;;4975139;28;20208;-70
2022/03/20 13:13:07;;;;;;;34.07;22.70;;;10.60;99.90;;;;;;4973968;28;20189;-73
2022/03/20 13:15:36;;;;;;;44.47;26.80;;;10.60;99.90;;;;;;4974849;28;20184;-71
2022/03/20 13:18:04;;;;;;;37.50;24.48;;;10.80;99.90;;;;;;4979883;28;20250;-71
2022/03/20 13:20:33;;;;;;;44.10;24.63;;;11.20;99.90;;;;;;4978527;28;20196;-71
2022/03/20 13:23:13;;;;;;;36.95;26.13;;;11.40;99.90;;;;;;4982131;28;20681;-72
2022/03/20 13:25:48;;;;;;;42.03;25.85;;;11.60;99.90;;;;;;4975255;28;20267;-71